Terminal Aerodrome Forecast
Issued by NWS Atlanta, GA

Home | Current Version | Previous Version | Text Only | Print | Product List | Glossary On
Versions: 1 2 3 4 5 6 7 8 9 10 11 12 13 14 15 16 17 18 19 20 21
000
FTUS42 KFFC 290536
TAFCSG
TAF
KCSG 290536Z 2906/3006 05004KT P6SM BKN100
     FM290900 VRB03KT P6SM SCT012
     FM291400 12005KT P6SM SCT035
     FM291700 12009KT P6SM SCT040 BKN250
     FM300000 11004KT P6SM SCT080=

USA.gov is the U.S. government's official web portal to all federal, state and local government web resources and services.